Time;durP1;ratioP1;P1;durP2;ratioP2;P2;SDS_P1;SDS_P2;PMS_P1;PMS_P2;Temp;Humidity;BMP_temperature;BMP_pressure;BME280_temperature;BME280_humidity;BME280_pressure;Samples;Min_cycle;Max_cycle;Signal;HPM_P1;HPM_P2
2022/09/15 00:01:14;;;;;;;6.55;5.90;;;;;;;22.67;48.96;99148.66;5052001;28;20033;-77
2022/09/15 00:03:39;;;;;;;6.80;5.65;;;;;;;23.25;48.94;99233.59;5053605;28;20031;-76
2022/09/15 00:06:05;;;;;;;5.55;5.15;;;;;;;22.98;48.93;99204.19;5053098;28;20421;-76
2022/09/15 00:08:31;;;;;;;6.03;5.50;;;;;;;22.92;48.95;99189.09;5053225;28;20024;-76
2022/09/15 00:11:08;;;;;;;6.22;5.72;;;;;;;23.26;49.18;99239.78;5052056;28;20382;-76
2022/09/15 00:13:35;;;;;;;5.88;5.38;;;;;;;23.18;49.20;99229.53;5053273;28;20049;-76
2022/09/15 00:16:02;;;;;;;6.70;5.78;;;;;;;23.15;49.06;99217.44;5053214;28;20021;-76
2022/09/15 00:18:28;;;;;;;6.00;5.53;;;;;;;22.87;48.97;99172.94;5052874;28;20032;-77
2022/09/15 00:20:53;;;;;;;5.40;5.00;;;;;;;23.04;48.95;99199.63;5053089;28;20028;-76
2022/09/15 00:23:19;;;;;;;5.80;5.30;;;;;;;22.78;49.01;99169.13;5052899;28;20383;-76
2022/09/15 00:25:48;;;;;;;6.20;5.60;;;;;;;23.18;48.96;99232.25;5051737;28;20025;-77
2022/09/15 00:28:15;;;;;;;7.00;5.28;;;;;;;23.14;48.92;99231.97;5053017;28;20033;-76
2022/09/15 00:30:46;;;;;;;6.05;5.55;;;;;;;23.14;48.76;99242.75;5052708;28;20024;-77
2022/09/15 00:33:13;;;;;;;5.47;5.00;;;;;;;22.75;48.84;99180.41;5053041;28;20036;-76
2022/09/15 00:35:40;;;;;;;8.25;6.00;;;;;;;22.73;48.53;99187.94;5052104;28;20508;-76
2022/09/15 00:38:07;;;;;;;5.82;5.32;;;;;;;22.90;48.18;99220.06;5053165;28;20033;-76
2022/09/15 00:40:33;;;;;;;8.00;5.60;;;;;;;22.36;48.01;99161.22;5051599;28;20049;-76
2022/09/15 00:42:58;;;;;;;6.05;5.45;;;;;;;22.76;48.11;99230.50;5052921;28;20021;-77
2022/09/15 00:45:24;;;;;;;5.78;5.25;;;;;;;22.51;48.11;99197.03;5051699;28;20162;-76
2022/09/15 00:47:50;;;;;;;5.97;5.47;;;;;;;22.29;47.98;99166.81;5066274;28;20052;-75
2022/09/15 00:50:19;;;;;;;6.07;5.57;;;;;;;22.57;48.01;99232.84;5069477;28;20025;-76
2022/09/15 00:53:00;;;;;;;5.18;4.78;;;;;;;22.70;47.81;99239.63;5052687;28;20025;-76
2022/09/15 00:55:29;;;;;;;7.40;5.70;;;;;;;22.78;47.76;99239.91;5052496;28;20516;-76
2022/09/15 00:58:00;;;;;;;7.15;5.20;;;;;;;22.74;47.50;99254.97;5051034;28;20033;-77
2022/09/15 01:00:27;;;;;;;6.15;5.65;;;;;;;22.47;47.79;99211.28;5052238;28;20033;-76
2022/09/15 01:02:53;;;;;;;6.25;5.65;;;;;;;22.73;48.00;99245.28;5052131;28;20032;-76
2022/09/15 01:05:25;;;;;;;6.47;5.63;;;;;;;22.56;48.14;99223.16;5052456;28;20036;-77
2022/09/15 01:07:53;;;;;;;6.20;5.70;;;;;;;22.54;47.91;99213.72;5052566;28;20104;-77
2022/09/15 01:10:31;;;;;;;6.35;5.70;;;;;;;22.69;47.96;99238.81;5052239;28;20032;-76
2022/09/15 01:12:59;;;;;;;5.40;5.00;;;;;;;22.57;47.70;99226.66;5060508;28;20051;-76
2022/09/15 01:16:00;;;;;;;6.32;5.75;;;;;;;22.19;47.85;99170.28;5063602;28;20033;-76
2022/09/15 01:19:03;;;;;;;6.25;5.65;;;;;;;22.55;48.09;99234.19;5050773;28;20029;-76
2022/09/15 01:21:34;;;;;;;6.75;5.78;;;;;;;22.47;48.28;99217.47;5051957;28;20057;-76
2022/09/15 01:24:37;;;;;;;6.40;5.90;;;;;;;22.45;48.37;99224.19;5051922;28;20021;-77
2022/09/15 01:27:34;;;;;;;6.60;5.90;;;;;;;22.41;48.60;99207.78;5051954;28;20060;-76
2022/09/15 01:30:18;;;;;;;6.68;5.55;;;;;;;22.43;48.51;99212.91;5050815;28;20162;-77
2022/09/15 01:33:05;;;;;;;6.07;5.57;;;;;;;22.43;48.60;99207.50;5050081;28;20029;-76
2022/09/15 01:35:48;;;;;;;6.28;5.65;;;;;;;22.36;48.54;99194.31;5051831;28;20032;-77
2022/09/15 01:38:35;;;;;;;6.53;5.47;;;;;;;22.05;48.63;99157.56;5051897;28;20495;-76
2022/09/15 01:41:31;;;;;;;7.35;5.70;;;;;;;22.44;48.45;99217.19;5051551;28;20166;-77
2022/09/15 01:44:08;;;;;;;5.78;5.28;;;;;;;22.41;48.25;99209.66;5050380;28;20087;-76
2022/09/15 01:46:41;;;;;;;6.35;5.78;;;;;;;22.38;48.27;99200.22;5051708;28;20112;-77
2022/09/15 01:49:09;;;;;;;6.35;5.75;;;;;;;22.35;48.08;99199.94;5051460;28;20512;-76
2022/09/15 01:51:35;;;;;;;5.43;5.00;;;;;;;21.93;48.24;99138.13;5051221;28;20064;-77
2022/09/15 01:54:04;;;;;;;8.35;5.88;;;;;;;22.42;48.46;99206.69;5051128;28;20486;-77
2022/09/15 01:56:30;;;;;;;6.43;5.45;;;;;;;21.78;48.24;99112.00;5051351;28;20036;-77
2022/09/15 01:58:56;;;;;;;5.70;5.20;;;;;;;22.04;48.44;99189.03;5051429;28;20025;-76
2022/09/15 02:01:26;;;;;;;6.22;5.40;;;;;;;22.35;48.33;99219.59;5051425;28;20542;-76
2022/09/15 02:03:59;;;;;;;7.72;5.47;;;;;;;22.12;48.36;99188.53;5051287;28;20021;-77
2022/09/15 02:06:39;;;;;;;7.53;5.78;;;;;;;22.32;48.32;99219.31;5051309;28;20037;-76
2022/09/15 02:09:20;;;;;;;11.82;5.90;;;;;;;22.27;48.04;99225.44;5051327;28;20032;-76
2022/09/15 02:12:06;;;;;;;5.97;5.32;;;;;;;22.14;48.01;99218.66;5049981;28;20124;-76
2022/09/15 02:14:59;;;;;;;6.18;5.55;;;;;;;22.19;48.21;99221.38;5049926;28;20029;-77
2022/09/15 02:17:28;;;;;;;7.13;5.47;;;;;;;21.97;47.94;99182.25;5051100;28;20395;-76
2022/09/15 02:20:02;;;;;;;8.45;6.25;;;;;;;22.05;47.72;99197.91;5051198;28;20025;-77
2022/09/15 02:22:31;;;;;;;6.05;5.03;;;;;;;22.23;47.62;99228.91;5051043;28;20017;-76
2022/09/15 02:25:06;;;;;;;6.40;5.78;;;;;;;22.13;47.68;99233.16;5051316;28;20021;-77
2022/09/15 02:27:37;;;;;;;5.60;5.10;;;;;;;22.12;47.81;99228.88;5050069;28;20029;-76
2022/09/15 02:30:08;;;;;;;7.40;5.53;;;;;;;21.52;47.61;99135.19;5051175;28;20029;-76
2022/09/15 02:32:35;;;;;;;5.78;5.18;;;;;;;21.77;47.58;99172.19;5051050;28;20049;-76
2022/09/15 02:35:05;;;;;;;6.93;5.18;;;;;;;21.71;47.48;99165.97;5051072;28;20027;-76
2022/09/15 02:37:32;;;;;;;5.75;5.25;;;;;;;22.07;47.32;99222.66;5050858;28;20108;-76
2022/09/15 02:39:58;;;;;;;8.65;5.63;;;;;;;21.51;47.42;99149.69;5050984;28;20574;-76
2022/09/15 02:42:30;;;;;;;5.95;5.45;;;;;;;21.57;47.44;99170.19;5053415;28;20113;-76
2022/09/15 02:44:56;;;;;;;6.88;5.65;;;;;;;21.53;47.66;99174.41;5055040;28;20429;-76
2022/09/15 02:47:22;;;;;;;8.07;5.43;;;;;;;21.93;47.83;99214.22;5054874;28;20036;-77
2022/09/15 02:49:47;;;;;;;7.53;5.97;;;;;;;21.45;47.66;99150.72;5054868;28;20029;-76
2022/09/15 02:52:13;;;;;;;7.68;5.50;;;;;;;21.86;47.86;99203.69;5054825;28;20021;-77
2022/09/15 02:54:38;;;;;;;6.15;5.63;;;;;;;21.18;47.67;99094.38;5054982;28;20029;-76
2022/09/15 02:57:04;;;;;;;5.60;5.10;;;;;;;21.65;47.71;99190.38;5053226;28;20021;-76
2022/09/15 03:00:11;;;;;;;6.72;5.72;;;;;;;21.54;47.72;99165.28;5053198;28;20075;-77
2022/09/15 03:02:19;;;;;;;7.47;5.63;;;;;;;21.78;47.41;99200.69;5054472;28;20017;-76
2022/09/15 03:04:48;;;;;;;5.63;5.00;;;;;;;21.87;47.15;99232.19;5053177;28;20459;-76
2022/09/15 03:07:15;;;;;;;6.28;5.68;;;;;;;21.89;47.10;99237.31;5054563;28;20028;-76
2022/09/15 03:09:40;;;;;;;5.82;5.20;;;;;;;21.68;47.14;99220.22;5053268;28;20025;-76
2022/09/15 03:12:06;;;;;;;6.35;5.05;;;;;;;21.82;47.21;99250.97;5054380;28;20391;-76
2022/09/15 03:14:32;;;;;;;7.45;5.32;;;;;;;21.79;47.07;99250.66;5054489;28;20056;-76
2022/09/15 03:16:58;;;;;;;6.57;5.25;;;;;;;21.23;47.11;99169.63;5054257;28;20489;-76
2022/09/15 03:19:25;;;;;;;5.72;4.97;;;;;;;21.61;47.14;99225.03;5054115;28;20025;-76
2022/09/15 03:21:50;;;;;;;6.30;4.75;;;;;;;21.23;47.01;99162.41;5054354;28;20055;-76
2022/09/15 03:24:18;;;;;;;8.98;4.78;;;;;;;21.27;46.87;99165.38;5054060;28;20021;-77
2022/09/15 03:26:43;;;;;;;5.70;5.07;;;;;;;21.49;47.19;99208.25;5052746;28;20028;-76
2022/09/15 03:29:08;;;;;;;6.45;5.22;;;;;;;21.36;47.12;99190.69;5053949;28;20512;-76
2022/09/15 03:31:34;;;;;;;7.68;6.43;;;;;;;21.42;47.17;99202.28;5053953;28;20104;-76
2022/09/15 03:33:59;;;;;;;9.55;6.18;;;;;;;21.21;47.23;99169.06;5054030;28;20439;-76
2022/09/15 03:36:24;;;;;;;7.75;5.47;;;;;;;21.65;47.42;99261.06;5054437;28;20070;-76
2022/09/15 03:38:50;;;;;;;5.53;5.05;;;;;;;21.25;47.04;99197.84;5054192;28;20127;-76
2022/09/15 03:41:15;;;;;;;5.80;4.95;;;;;;;21.69;46.97;99251.41;5054277;28;20055;-76
2022/09/15 03:43:41;;;;;;;7.72;4.95;;;;;;;21.30;46.99;99190.91;5052743;28;20021;-76
2022/09/15 03:46:09;;;;;;;9.63;5.40;;;;;;;21.45;47.05;99210.63;5053773;28;20021;-76
2022/09/15 03:48:35;;;;;;;9.23;5.20;;;;;;;21.20;47.13;99175.50;5052485;28;20052;-76
2022/09/15 03:51:04;;;;;;;5.60;5.10;;;;;;;21.37;47.27;99203.06;5053898;28;20028;-76
2022/09/15 03:53:34;;;;;;;8.48;5.63;;;;;;;21.23;47.22;99185.75;5052833;28;20108;-76
2022/09/15 03:56:23;;;;;;;7.63;6.13;;;;;;;21.62;47.48;99266.94;5053876;28;20033;-76
2022/09/15 03:58:49;;;;;;;6.63;5.72;;;;;;;21.47;46.94;99234.56;5053673;28;20032;-76
2022/09/15 04:01:16;;;;;;;9.77;5.65;;;;;;;21.33;47.07;99211.88;5053709;28;20028;-77
2022/09/15 04:03:41;;;;;;;9.63;6.00;;;;;;;20.87;46.69;99129.03;5053553;28;20413;-76
2022/09/15 04:06:06;;;;;;;11.27;5.18;;;;;;;21.45;46.82;99232.13;5053647;28;20021;-77
2022/09/15 04:08:32;;;;;;;8.07;6.00;;;;;;;21.02;46.88;99168.63;5064724;28;20029;-76
2022/09/15 04:10:59;;;;;;;6.65;6.05;;;;;;;21.58;46.95;99252.41;5069318;28;20029;-77
2022/09/15 04:13:25;;;;;;;9.77;5.75;;;;;;;21.58;46.79;99252.41;5053869;28;20017;-76
2022/09/15 04:16:00;;;;;;;11.02;6.38;;;;;;;21.40;46.80;99224.03;5053113;28;20469;-76
2022/09/15 04:18:27;;;;;;;13.02;6.15;;;;;;;21.53;46.72;99258.50;5052907;28;20021;-76
2022/09/15 04:20:53;;;;;;;10.00;5.90;;;;;;;21.35;46.90;99232.03;5052879;28;20032;-76
2022/09/15 04:23:19;;;;;;;6.32;5.65;;;;;;;21.19;46.93;99223.00;5052828;28;20017;-76
2022/09/15 04:25:53;;;;;;;8.85;5.40;;;;;;;20.72;46.49;99133.44;5052907;28;20497;-76
2022/09/15 04:28:19;;;;;;;9.73;6.00;;;;;;;21.21;46.78;99218.19;5052979;28;20029;-76
2022/09/15 04:30:44;;;;;;;6.60;5.78;;;;;;;21.10;46.71;99213.81;5051558;28;20017;-76
2022/09/15 04:33:10;;;;;;;6.82;5.25;;;;;;;21.28;46.65;99226.06;5056071;28;20085;-76
2022/09/15 04:35:35;;;;;;;9.88;5.40;;;;;;;21.14;46.69;99203.38;5067462;28;20413;-76
2022/09/15 04:38:01;;;;;;;6.35;5.38;;;;;;;21.41;46.29;99238.25;5058426;28;20056;-77
2022/09/15 04:40:26;;;;;;;7.65;5.55;;;;;;;21.08;46.30;99190.97;5052742;28;20059;-77
2022/09/15 04:42:52;;;;;;;7.22;5.78;;;;;;;20.96;46.33;99171.53;5052912;28;20048;-77
2022/09/15 04:45:18;;;;;;;6.00;5.35;;;;;;;20.91;46.45;99173.09;5052951;28;20495;-78
2022/09/15 04:47:43;;;;;;;7.68;5.18;;;;;;;21.09;46.29;99224.78;5052853;28;20025;-77
2022/09/15 04:50:09;;;;;;;6.63;5.45;;;;;;;20.78;46.33;99157.38;5052786;28;20031;-77
2022/09/15 04:52:35;;;;;;;6.43;5.50;;;;;;;21.10;46.24;99213.81;5052704;28;20514;-77
2022/09/15 04:55:00;;;;;;;9.10;5.75;;;;;;;21.11;46.66;99219.97;5052528;28;20040;-77
2022/09/15 04:57:26;;;;;;;6.75;5.13;;;;;;;21.27;46.54;99248.63;5050927;28;20108;-77
2022/09/15 04:59:51;;;;;;;9.50;6.07;;;;;;;20.93;46.60;99178.22;5052545;28;20025;-77
2022/09/15 05:02:16;;;;;;;9.82;5.32;;;;;;;20.45;46.29;99096.69;5051278;28;20012;-77
2022/09/15 05:04:42;;;;;;;7.03;4.88;;;;;;;21.12;46.59;99211.66;5052304;28;20497;-77
2022/09/15 05:07:07;;;;;;;6.93;5.20;;;;;;;20.87;46.44;99149.72;5051043;28;20086;-77
2022/09/15 05:09:33;;;;;;;6.70;4.93;;;;;;;21.27;46.20;99229.81;5052523;28;20472;-77
2022/09/15 05:11:58;;;;;;;5.70;5.00;;;;;;;21.09;46.37;99179.16;5052440;28;20078;-77
2022/09/15 05:14:24;;;;;;;14.05;5.22;;;;;;;21.07;46.48;99173.22;5052233;28;20033;-77
2022/09/15 05:16:49;;;;;;;8.85;5.72;;;;;;;21.13;46.59;99237.44;5052333;28;20024;-77
2022/09/15 05:19:14;;;;;;;7.05;5.78;;;;;;;21.56;46.83;99252.66;5052130;28;20021;-77
2022/09/15 05:21:40;;;;;;;6.50;5.40;;;;;;;21.50;46.43;99242.91;5052321;28;20081;-77
2022/09/15 05:24:06;;;;;;;9.48;5.28;;;;;;;20.87;46.85;99130.91;5052225;28;20028;-77
2022/09/15 05:26:31;;;;;;;7.55;5.82;;;;;;;20.39;46.91;99053.97;5052094;28;20618;-77
2022/09/15 05:28:57;;;;;;;7.78;5.18;;;;;;;21.37;46.91;99205.75;5050906;28;20097;-77
2022/09/15 05:31:25;;;;;;;10.43;7.45;;;;;;;21.47;47.08;99221.94;5051989;28;20031;-77
2022/09/15 05:33:51;;;;;;;9.27;6.32;;;;;;;21.59;47.02;99221.78;5051748;28;20029;-77
2022/09/15 05:36:19;;;;;;;11.05;5.57;;;;;;;21.45;47.04;99202.56;5051725;28;20086;-77
2022/09/15 05:38:45;;;;;;;10.02;6.03;;;;;;;21.87;47.02;99250.19;5051553;28;20017;-76
2022/09/15 05:41:13;;;;;;;9.38;6.05;;;;;;;21.61;47.12;99197.34;5051575;28;20056;-77
2022/09/15 05:43:38;;;;;;;5.97;5.10;;;;;;;21.70;47.05;99209.22;5051516;28;20036;-77
2022/09/15 05:46:06;;;;;;;6.70;6.03;;;;;;;21.82;47.18;99212.53;5051511;28;20468;-77
2022/09/15 05:48:33;;;;;;;8.90;5.63;;;;;;;22.02;46.87;99247.59;5051525;28;20454;-77
2022/09/15 05:50:58;;;;;;;5.88;4.93;;;;;;;22.16;46.88;99240.72;5049695;28;20029;-77
2022/09/15 05:53:24;;;;;;;6.50;4.90;;;;;;;21.70;46.63;99158.16;5050511;28;20543;-76
2022/09/15 05:55:57;;;;;;;11.85;6.07;;;;;;;22.11;46.67;99211.09;5049419;28;20041;-76
2022/09/15 05:58:23;;;;;;;7.60;5.15;;;;;;;22.28;46.88;99231.63;5051623;28;20037;-76
2022/09/15 06:00:50;;;;;;;11.68;5.72;;;;;;;22.44;46.74;99255.66;5051116;28;20029;-76
2022/09/15 06:03:16;;;;;;;7.35;5.63;;;;;;;22.52;46.44;99251.66;5051352;28;20096;-76
2022/09/15 06:05:41;;;;;;;8.77;5.68;;;;;;;22.19;46.41;99191.78;5051503;28;20052;-76
2022/09/15 06:08:07;;;;;;;9.88;5.68;;;;;;;22.63;46.37;99245.25;5051315;28;20025;-76
2022/09/15 06:10:32;;;;;;;10.30;5.13;;;;;;;22.24;46.44;99174.06;5046649;28;20037;-77
2022/09/15 06:12:58;;;;;;;8.48;5.28;;;;;;;22.78;46.36;99236.41;5031255;28;20034;-76
2022/09/15 06:15:23;;;;;;;9.40;5.35;;;;;;;22.75;46.37;99229.69;5048609;28;20029;-77
2022/09/15 06:17:50;;;;;;;11.30;5.20;;;;;;;22.81;46.60;99215.19;5053647;28;20078;-76
2022/09/15 06:20:17;;;;;;;6.82;5.32;;;;;;;23.07;46.52;99236.81;5056609;28;20052;-77
2022/09/15 06:22:43;;;;;;;9.13;6.03;;;;;;;23.16;46.72;99243.28;5057620;28;20055;-78
2022/09/15 06:25:09;;;;;;;9.02;8.07;;;;;;;22.90;46.32;99179.66;5055486;28;20032;-77
2022/09/15 06:27:34;;;;;;;8.70;6.38;;;;;;;23.07;46.25;99188.34;5054230;28;20435;-77
2022/09/15 06:30:00;;;;;;;11.70;7.28;;;;;;;22.94;45.98;99157.31;5053743;28;20025;-76
2022/09/15 06:32:25;;;;;;;7.45;4.50;;;;;;;23.45;44.87;99213.94;5055101;28;20029;-76
2022/09/15 06:34:51;;;;;;;9.27;8.18;;;;;;;23.42;44.47;99199.09;5055115;28;20029;-76
2022/09/15 06:37:16;;;;;;;7.00;5.85;;;;;;;23.53;43.83;99191.00;5054893;28;20025;-77
2022/09/15 06:39:44;;;;;;;5.28;4.70;;;;;;;22.79;43.95;99050.41;5054622;28;20029;-76
2022/09/15 06:42:10;;;;;;;5.70;4.93;;;;;;;23.70;43.93;99176.19;5053480;28;20033;-76
2022/09/15 06:44:36;;;;;;;5.10;4.18;;;;;;;23.62;43.78;99143.59;5048737;28;20036;-76
2022/09/15 06:47:02;;;;;;;8.40;7.35;;;;;;;23.57;43.94;99122.06;5052364;28;20481;-77
2022/09/15 06:49:30;;;;;;;7.00;5.60;;;;;;;24.19;43.90;99205.22;5055031;28;20028;-77
2022/09/15 06:51:55;;;;;;;6.88;5.43;;;;;;;23.73;43.97;99120.94;5054560;28;20031;-76
2022/09/15 06:54:21;;;;;;;43.55;38.53;;;;;;;24.23;43.92;99200.88;5054742;28;20472;-76
2022/09/15 06:56:46;;;;;;;13.85;10.73;;;;;;;24.34;43.18;99212.47;5054814;28;20032;-77
2022/09/15 06:59:13;;;;;;;21.85;19.65;;;;;;;24.06;43.30;99163.44;5054499;28;20055;-77
2022/09/15 07:01:38;;;;;;;16.23;14.52;;;;;;;24.16;43.36;99153.69;5049217;28;20025;-77
2022/09/15 07:04:08;;;;;;;15.88;14.32;;;;;;;24.63;42.88;99205.34;5034244;28;20551;-77
2022/09/15 07:06:35;;;;;;;17.10;15.50;;;;;;;24.74;42.72;99207.97;5046762;28;20547;-77
2022/09/15 07:09:01;;;;;;;16.08;14.15;;;;;;;24.80;42.68;99215.78;5051758;28;20020;-77
2022/09/15 07:11:27;;;;;;;15.93;14.43;;;;;;;24.89;42.62;99210.59;5057635;28;20051;-77
2022/09/15 07:13:53;;;;;;;14.93;13.18;;;;;;;24.95;42.50;99207.56;5052533;28;20027;-76
2022/09/15 07:16:19;;;;;;;10.93;9.60;;;;;;;24.72;42.34;99162.34;5054244;28;20041;-77
2022/09/15 07:18:46;;;;;;;10.65;9.55;;;;;;;25.12;42.34;99214.50;5050979;28;20021;-76
2022/09/15 07:21:14;;;;;;;7.82;6.75;;;;;;;25.19;41.84;99213.09;5053134;28;20027;-76
2022/09/15 07:23:40;;;;;;;11.90;9.30;;;;;;;25.26;41.62;99213.59;5054142;28;20047;-76
2022/09/15 07:26:22;;;;;;;18.45;16.42;;;;;;;25.31;41.72;99216.28;5051871;28;20017;-77
2022/09/15 07:29:00;;;;;;;9.93;6.38;;;;;;;25.37;40.80;99216.25;5052830;28;20021;-76
2022/09/15 07:31:27;;;;;;;11.57;10.40;;;;;;;25.37;41.08;99192.72;5061462;28;20020;-76
2022/09/15 07:33:53;;;;;;;10.52;9.43;;;;;;;25.39;41.02;99187.84;5062481;28;20025;-76
2022/09/15 07:36:19;;;;;;;8.38;7.30;;;;;;;25.42;40.73;99211.59;5057631;28;20078;-76
2022/09/15 07:38:47;;;;;;;7.55;5.80;;;;;;;25.68;40.51;99220.31;5053089;28;20119;-76
2022/09/15 07:41:15;;;;;;;7.65;6.95;;;;;;;25.51;40.41;99180.16;5052847;28;20041;-76
2022/09/15 07:43:47;;;;;;;6.20;5.60;;;;;;;25.65;40.14;99191.13;5053227;28;20396;-76
2022/09/15 07:46:14;;;;;;;6.90;6.30;;;;;;;25.57;39.62;99162.00;5051792;28;20024;-77
2022/09/15 07:48:42;;;;;;;10.02;8.35;;;;;;;25.69;39.61;99172.44;5054322;28;20028;-77
2022/09/15 07:51:07;;;;;;;11.45;10.35;;;;;;;25.84;39.74;99194.72;5054477;28;20029;-77
2022/09/15 07:53:33;;;;;;;6.78;5.75;;;;;;;25.99;38.99;99199.16;5054118;28;20481;-76
2022/09/15 07:55:58;;;;;;;12.05;10.75;;;;;;;26.03;38.84;99202.13;5058470;28;20032;-76
2022/09/15 07:58:24;;;;;;;10.50;9.40;;;;;;;26.17;38.58;99197.66;5064263;28;20080;-77
2022/09/15 08:00:49;;;;;;;9.30;7.38;;;;;;;26.42;38.36;99221.72;5052973;28;20501;-76
2022/09/15 08:03:15;;;;;;;8.75;7.32;;;;;;;26.34;38.42;99192.59;5053422;28;20013;-75
2022/09/15 08:05:40;;;;;;;13.23;11.98;;;;;;;26.55;38.35;99212.09;5053024;28;20028;-77
2022/09/15 08:08:06;;;;;;;6.78;5.80;;;;;;;26.68;38.03;99210.56;5053059;28;20032;-76
2022/09/15 08:10:33;;;;;;;8.10;6.03;;;;;;;26.77;37.79;99206.13;5039902;28;20468;-76
2022/09/15 08:12:59;;;;;;;11.77;6.85;;;;;;;26.53;37.16;99141.97;5033368;28;20026;-76
2022/09/15 08:15:24;;;;;;;7.25;6.55;;;;;;;26.96;37.00;99187.97;5033408;28;20025;-76
2022/09/15 08:17:50;;;;;;;9.63;5.85;;;;;;;27.05;36.49;99186.22;5047857;28;20076;-76
2022/09/15 08:20:16;;;;;;;6.72;6.05;;;;;;;27.16;35.90;99190.38;5031471;28;20025;-76
2022/09/15 08:22:42;;;;;;;6.10;5.18;;;;;;;27.14;35.53;99176.31;5031690;28;20025;-76
2022/09/15 08:25:08;;;;;;;8.73;6.90;;;;;;;27.07;35.24;99120.91;5032758;28;20021;-76
2022/09/15 08:27:34;;;;;;;6.13;5.03;;;;;;;27.52;34.90;99171.63;5044173;28;20096;-76
2022/09/15 08:29:59;;;;;;;6.82;4.13;;;;;;;27.23;34.06;99101.38;5052276;28;20079;-76
2022/09/15 08:32:24;;;;;;;7.63;4.18;;;;;;;27.70;33.71;99148.28;5051423;28;20029;-76
2022/09/15 08:34:50;;;;;;;5.85;2.45;;;;;;;28.03;33.65;99181.56;5052828;28;20024;-76
2022/09/15 08:37:16;;;;;;;5.13;4.05;;;;;;;28.17;32.96;99179.66;5052264;28;20017;-77
2022/09/15 08:39:41;;;;;;;7.30;5.13;;;;;;;28.30;32.75;99178.09;5050793;28;20390;-77
2022/09/15 08:42:17;;;;;;;6.05;3.33;;;;;;;28.33;32.46;99163.91;5050886;28;20024;-77
2022/09/15 08:44:54;;;;;;;7.82;4.80;;;;;;;28.66;32.61;99182.75;5049919;28;20025;-77
2022/09/15 08:47:24;;;;;;;9.23;6.82;;;;;;;28.83;32.41;99182.09;5047689;28;20115;-77
2022/09/15 08:50:21;;;;;;;7.78;6.60;;;;;;;29.01;32.26;99181.97;5052345;28;20043;-77
2022/09/15 08:52:52;;;;;;;11.02;8.60;;;;;;;29.00;32.19;99145.03;5047896;28;20033;-77
2022/09/15 08:55:34;;;;;;;18.60;16.90;;;;;;;29.30;32.21;99165.22;5050055;28;20078;-77
2022/09/15 08:57:59;;;;;;;11.93;9.27;;;;;;;29.09;32.32;99123.34;5052343;28;20021;-77
2022/09/15 09:00:25;;;;;;;7.55;5.90;;;;;;;29.56;31.64;99162.69;5051349;28;20459;-77
2022/09/15 09:02:54;;;;;;;6.78;2.90;;;;;;;29.71;31.34;99166.91;5050921;28;20048;-77
2022/09/15 09:05:39;;;;;;;3.15;2.15;;;;;;;29.72;30.50;99152.19;5051976;28;20075;-77
2022/09/15 09:08:13;;;;;;;4.00;3.40;;;;;;;29.63;30.15;99111.34;5051508;28;20023;-77
2022/09/15 09:10:45;;;;;;;4.55;2.20;;;;;;;30.19;30.11;99172.41;5044743;28;20097;-77
2022/09/15 09:13:27;;;;;;;2.40;2.00;;;;;;;29.96;29.60;99092.75;5047184;28;20032;-77
2022/09/15 09:16:30;;;;;;;5.30;4.03;;;;;;;30.58;28.99;99160.66;5049420;28;20107;-77
2022/09/15 09:19:21;;;;;;;10.55;8.68;;;;;;;29.81;28.97;99002.56;5028292;28;20438;-76
2022/09/15 09:21:56;;;;;;;5.55;4.38;;;;;;;30.59;27.82;99102.34;5032944;28;20048;-77
2022/09/15 09:24:35;;;;;;;6.38;4.53;;;;;;;31.04;28.07;99151.06;5046293;28;20021;-77
2022/09/15 09:27:01;;;;;;;3.58;3.28;;;;;;;30.98;27.63;99111.44;5050486;28;20017;-77
2022/09/15 09:29:42;;;;;;;4.10;3.00;;;;;;;31.40;27.17;99131.63;5050180;28;20417;-77
2022/09/15 09:32:23;;;;;;;10.68;7.82;;;;;;;31.24;27.08;99089.63;5051420;28;20024;-77
2022/09/15 09:35:11;;;;;;;3.83;2.40;;;;;;;31.49;26.04;99105.09;5051711;28;20033;-77
2022/09/15 09:37:36;;;;;;;3.28;2.30;;;;;;;31.86;26.40;99133.56;5051642;28;20056;-77
2022/09/15 09:40:02;;;;;;;3.55;1.55;;;;;;;32.02;26.17;99127.56;5050571;28;20781;-77
2022/09/15 09:42:30;;;;;;;4.20;2.45;;;;;;;31.93;25.82;99097.53;5049756;28;20108;-77
2022/09/15 09:44:56;;;;;;;6.63;3.65;;;;;;;32.10;25.83;99092.00;5051493;28;20035;-77
2022/09/15 09:47:26;;;;;;;4.15;2.88;;;;;;;32.48;25.64;99118.44;5051010;28;20473;-77
2022/09/15 09:49:52;;;;;;;7.10;5.03;;;;;;;31.77;24.95;98988.13;5050815;28;20092;-77
2022/09/15 09:52:38;;;;;;;11.73;6.38;;;;;;;32.72;24.97;99121.31;5048691;28;20039;-77
2022/09/15 09:55:23;;;;;;;7.13;4.00;;;;;;;32.77;24.83;99095.72;5047461;28;20114;-77
2022/09/15 09:57:48;;;;;;;8.68;7.78;;;;;;;32.72;24.96;99055.72;5048172;28;20083;-77
2022/09/15 10:00:35;;;;;;;4.07;3.25;;;;;;;33.18;24.68;99101.09;5049336;28;20053;-77
2022/09/15 10:03:21;;;;;;;5.40;3.80;;;;;;;33.30;24.02;99097.63;5050669;28;20448;-77
2022/09/15 10:06:22;;;;;;;6.72;5.57;;;;;;;33.48;23.55;99096.31;5049255;28;20468;-77
2022/09/15 10:09:16;;;;;;;8.45;6.00;;;;;;;33.60;24.19;99095.53;5041332;28;20048;-77
2022/09/15 10:11:52;;;;;;;8.07;3.83;;;;;;;33.49;24.37;99056.06;5052160;28;20043;-77
2022/09/15 10:14:44;;;;;;;5.90;2.20;;;;;;;33.88;23.98;99101.13;5048115;28;20041;-77
2022/09/15 10:17:11;;;;;;;3.55;2.50;;;;;;;33.95;23.66;99095.88;5049531;28;20028;-78
2022/09/15 10:19:57;;;;;;;6.38;5.80;;;;;;;34.02;23.22;99071.44;5048585;28;20040;-77
2022/09/15 10:22:29;;;;;;;5.82;4.45;;;;;;;34.13;23.00;99087.41;5050733;28;20603;-77
2022/09/15 10:24:54;;;;;;;6.82;4.65;;;;;;;33.60;23.18;98996.16;5050380;28;20034;-77
2022/09/15 10:27:30;;;;;;;7.70;3.63;;;;;;;34.22;23.29;99082.63;5047890;28;20025;-77
2022/09/15 10:30:16;;;;;;;4.95;4.30;;;;;;;34.29;22.90;99055.44;5050446;28;20450;-77
2022/09/15 10:32:42;;;;;;;8.60;7.18;;;;;;;34.48;23.48;99058.38;5050830;28;20032;-77
2022/09/15 10:35:17;;;;;;;6.82;3.05;;;;;;;34.61;22.57;99079.09;5050984;28;20033;-77
2022/09/15 10:37:53;;;;;;;6.75;3.28;;;;;;;34.76;22.01;99071.25;5051076;28;20025;-77
2022/09/15 10:40:18;;;;;;;4.05;1.65;;;;;;;34.93;22.10;99073.72;5051505;28;20056;-77
2022/09/15 10:42:50;;;;;;;3.08;2.10;;;;;;;34.98;21.39;99070.75;5050487;28;20071;-77
2022/09/15 10:45:23;;;;;;;8.65;2.55;;;;;;;34.69;21.73;99023.31;5050957;28;20021;-77
2022/09/15 10:48:02;;;;;;;5.05;2.25;;;;;;;35.12;21.76;99068.38;5050424;28;20446;-77
2022/09/15 10:50:57;;;;;;;4.50;2.00;;;;;;;35.19;21.64;99057.59;5051033;28;20085;-77
2022/09/15 10:54:00;;;;;;;4.35;2.00;;;;;;;35.33;21.72;99062.66;5051226;28;20021;-77
2022/09/15 10:56:29;;;;;;;4.32;2.42;;;;;;;35.40;21.25;99059.28;5045494;28;20395;-77
2022/09/15 10:59:22;;;;;;;6.65;3.85;;;;;;;35.53;21.33;99045.13;5049946;28;20103;-76
2022/09/15 11:01:57;;;;;;;4.45;3.55;;;;;;;35.69;22.03;99047.06;5053349;28;20028;-76
2022/09/15 11:04:59;;;;;;;7.97;2.67;;;;;;;35.71;21.50;99048.31;5063853;28;20032;-77
2022/09/15 11:07:48;;;;;;;5.53;2.67;;;;;;;35.78;21.45;99045.72;5050782;28;20029;-77
2022/09/15 11:10:35;;;;;;;5.28;1.90;;;;;;;35.91;20.67;99049.19;5054714;28;20021;-77
2022/09/15 11:13:16;;;;;;;5.43;1.88;;;;;;;35.93;20.75;99044.91;5054133;28;20029;-77
2022/09/15 11:16:09;;;;;;;6.80;3.55;;;;;;;35.83;20.87;99004.28;5052163;28;20057;-77
2022/09/15 11:18:44;;;;;;;8.75;4.32;;;;;;;36.12;21.05;99027.66;5052850;28;20031;-77
2022/09/15 11:21:31;;;;;;;4.85;2.50;;;;;;;36.17;20.64;99021.88;5052383;28;20035;-77
2022/09/15 11:24:11;;;;;;;6.75;1.95;;;;;;;36.13;20.65;99022.97;5050997;28;20095;-77
2022/09/15 11:26:47;;;;;;;4.60;2.88;;;;;;;36.12;20.94;99024.91;5050151;28;20025;-77
2022/09/15 11:29:30;;;;;;;8.20;7.40;;;;;;;35.98;21.39;98986.94;5045864;28;20031;-77
2022/09/15 11:32:03;;;;;;;6.18;4.18;;;;;;;35.88;20.83;98961.97;5064855;28;20025;-77
2022/09/15 11:34:39;;;;;;;9.38;4.05;;;;;;;36.22;21.23;99016.09;5050095;28;20030;-77
2022/09/15 11:37:06;;;;;;;9.00;6.47;;;;;;;36.28;21.08;99008.34;5036155;28;20029;-77
2022/09/15 11:39:59;;;;;;;5.97;4.47;;;;;;;36.30;20.61;99008.81;5048456;28;20025;-77
2022/09/15 11:42:39;;;;;;;13.48;11.52;;;;;;;36.13;21.51;98976.22;5053580;28;20021;-78
2022/09/15 11:45:20;;;;;;;8.45;5.03;;;;;;;36.02;21.23;98951.28;5052656;28;20406;-78
2022/09/15 11:47:55;;;;;;;7.15;4.35;;;;;;;35.77;21.25;98915.03;5052282;28;20198;-77
2022/09/15 11:50:31;;;;;;;6.18;3.78;;;;;;;36.25;21.33;98984.34;5053281;28;20500;-77